Mc Cammon, Idaho
Current Conditions -  °F | °C
As of 6:53 AM on Monday 20 Oct 2014 (Local Time) from KPIH Reporting Station
Clear Clear  
Wind Chill: 27°   Ceiling: Unl
Heat Index: 32°   Visibility: 10mi
Dew Point: 30°   Wind: 5mph
Humidity: 92%   Direction: 360°N
Pressure: 30.04"   Gusts: NA
Location:  42.6336°N, 112.1758°W
Report Text: KPIH 201253Z 36004KT 10SM CLR 00/M01 A3004 RMK AO2 SLP162 T00001011
Loading
Personal Weather Stations






























Interactive Weather Map
Tropical Storm Tracking
New forecast layout! Learn more

10-Day Weather Forecast

Advertisements
Track Severe Weather on mobile